Nearby METAR Reports

 

KTAN - Taunton, Massachusetts, USA
Distance from station: W 5mi, 8km
Updated: Sat, 23-Jan-2021 4:52pm EST
Clear
Clear
 Wind from NW
Wind: NW 8 mph , 13 km/h, Gust: 29 mph , 46 km/h
Temperature: 28°F , -2°C
Wind Chill: 20°F , -7°C
Dew Point: 3°F , -16°C
Humidity: 34%
Barometer: 29.90 inHg , 1012.5 hPa
Clouds: Clear
Visibility: 10 miles , 16 km
2021/01/23 21:52 KTAN 232152Z AUTO 31007G25KT 250V340 10SM CLR M02/M16 A2990 RMK AO2 SLP125 T10221156
KPYM - Plymouth, Massachusetts, USA
Distance from station: ENE 10mi, 16km
Updated: Sat, 23-Jan-2021 4:52pm EST
Clear
Clear
 Wind from WNW
Wind: WNW 24 mph , 39 km/h, Gust: 33 mph , 54 km/h
Temperature: 27°F , -3°C
Wind Chill: 12°F , -11°C
Dew Point: 3°F , -16°C
Humidity: 36%
Barometer: 29.88 inHg , 1011.9 hPa
Clouds: Clear
Visibility: 10 miles , 16 km
2021/01/23 21:52 KPYM 232152Z AUTO 30021G29KT 10SM CLR M03/M16 A2988 RMK AO2 PK WND 30029/2151 SLP119 T10331156
 
KEWB - New Bedford, Massachusetts, USA
Distance from station: S 14mi, 23km
Updated: Sat, 23-Jan-2021 4:53pm EST
Clear
Clear
 Wind from W
Wind: W 13 mph , 20 km/h, Gust: 28 mph , 44 km/h
Temperature: 27°F , -3°C
Wind Chill: 16°F , -9°C
Dew Point: 7°F , -14°C
Humidity: 43%
Barometer: 29.90 inHg , 1012.5 hPa
Clouds: Clear
Visibility: 10 miles , 16 km
2021/01/23 21:53 KEWB 232153Z 28011G24KT 230V300 10SM CLR M03/M14 A2990 RMK AO2 PK WND 29026/2131 SLP124 T10281139
KGHG - Marshfield, Massachusetts, USA
Distance from station: NE 20mi, 31km
Updated: Sat, 23-Jan-2021 5:15pm EST
Clear
Clear
 Wind from NW
Wind: NW 17 mph , 28 km/h, Gust: 30 mph , 48 km/h
Temperature: 27°F , -3°C
Wind Chill: 14°F , -10°C
Dew Point: 5°F , -15°C
Humidity: 39%
Barometer: 29.90 inHg , 1012.5 hPa
Clouds: Clear
Visibility: 10 miles , 16 km
2021/01/23 22:15 KGHG 232215Z AUTO 32015G26KT 300V360 10SM CLR M03/M15 A2990 RMK AO2
 
KOWD - Norwood, Massachusetts, USA
Distance from station: NNW 24mi, 39km
Updated: Sat, 23-Jan-2021 4:53pm EST
Clear
Clear
 Wind from NW
Wind: NW 17 mph , 28 km/h, Gust: 28 mph , 44 km/h
Temperature: 27°F , -3°C
Wind Chill: 14°F , -10°C
Dew Point: 3°F , -16°C
Humidity: 36%
Barometer: 29.92 inHg , 1013.2 hPa
Clouds: Clear
Visibility: 10 miles , 16 km
2021/01/23 21:53 KOWD 232153Z 31015G24KT 10SM CLR M03/M16 A2992 RMK AO2 PK WND 32028/2058 SLP134 T10331161
KMQE - East Milton, Massachusetts, USA
Distance from station: NNW 25mi, 40km
Updated: Sat, 23-Jan-2021 4:51pm EST

 Wind from WNW
Wind: WNW 24 mph , 39 km/h, Gust: 38 mph , 61 km/h
Temperature: 21°F , -6°C
Wind Chill: 4°F , -16°C
Dew Point: 3°F , -16°C
Humidity: 45%
Barometer: 29.85 inHg , 1010.8 hPa
2021/01/23 21:51 KMQE 232151Z AUTO 30021G33KT M06/M16 A2985 RMK AO1 PK WND 29033/2150 SLP126 T10611161
 
KFMH - Falmouth/Otis Ab, Massachusetts, USA
Distance from station: SE 27mi, 44km
Updated: Sat, 23-Jan-2021 3:50pm EST
NOT Current
Clear
Clear
 Wind from NW
Wind: NW 16 mph , 26 km/h, Gust: 24 mph , 39 km/h
Temperature: 27°F , -3°C
Wind Chill: 15°F , -9°C
Dew Point: 5°F , -15°C
Humidity: 39%
Barometer: 29.87 inHg , 1011.5 hPa
Clouds: Clear
Visibility: 10 miles , 16 km
2021/01/23 20:50 KFMH 232050Z 32014G21KT 10SM CLR M03/M15 A2987
KPVD - Providence/Green, Rhode Island, USA
Distance from station: WSW 29mi, 47km
Updated: Sat, 23-Jan-2021 4:51pm EST
Few Clouds
Few Clouds
 Wind from WNW
Wind: WNW 10 mph , 17 km/h, Gust: 33 mph , 54 km/h
Temperature: 27°F , -3°C
Wind Chill: 18°F , -8°C
Dew Point: 3°F , -16°C
Humidity: 36%
Barometer: 29.93 inHg , 1013.5 hPa
Clouds: Few Clouds
Visibility: 10 miles , 16 km
Cloud details: Few Clouds 5000 ft
2021/01/23 21:51 KPVD 232151Z 29009G29KT 10SM FEW050 M03/M16 A2993 RMK AO2 PK WND 32029/2143 SLP136 T10331156
 
KSFZ - Pawtucket, Rhode Island, USA
Distance from station: W 30mi, 48km
Updated: Sat, 23-Jan-2021 4:56pm EST
Clear
Clear
 Wind from WNW
Wind: WNW 18 mph , 30 km/h, Gust: 28 mph , 44 km/h
Temperature: 23°F , -5°C
Wind Chill: 9°F , -13°C
Dew Point: 7°F , -14°C
Humidity: 50%
Barometer: 29.91 inHg , 1012.9 hPa
Clouds: Clear
Visibility: 10 miles , 16 km
2021/01/23 21:56 KSFZ 232156Z AUTO 30016G24KT 10SM CLR M05/M14 A2991 RMK AO2 SLP079 T10501144 FZRANO PNO $
KUUU - Newport, Rhode Island, USA
Distance from station: SW 31mi, 50km
Updated: Sat, 23-Jan-2021 4:53pm EST
Clear
Clear
 Wind from WNW
Wind: WNW 16 mph , 26 km/h, Gust: 28 mph , 44 km/h
Temperature: 25°F , -4°C
Wind Chill: 12°F , -11°C
Dew Point: 7°F , -14°C
Humidity: 46%
Barometer: 29.91 inHg , 1012.9 hPa
Clouds: Clear
Visibility: 10 miles , 16 km
2021/01/23 21:53 KUUU 232153Z AUTO 30014G24KT 10SM CLR M04/M14 A2991 RMK AO2 PK WND 31029/2118 SLP131 T10391139
 
KOQU - N. Kingston/Quon, Rhode Island, USA
Distance from station: SW 32mi, 52km
Updated: Sat, 23-Jan-2021 4:50pm EST
Clear
Clear
 Wind from NW
Wind: NW 17 mph , 28 km/h, Gust: 29 mph , 46 km/h
Temperature: 27°F , -3°C
Wind Chill: 14°F , -10°C
Dew Point: 5°F , -15°C
Humidity: 39%
Barometer: 29.93 inHg , 1013.5 hPa
Clouds: Clear
Visibility: 10 miles , 16 km
2021/01/23 21:50 KOQU 232150Z 31015G25KT 10SM SKC M03/M15 A2993 RMK LAST
KBOS - Boston, Massachusetts, USA
Distance from station: N 33mi, 54km
Updated: Sat, 23-Jan-2021 4:54pm EST
Few Clouds
Few Clouds
 Wind from NW
Wind: NW 18 mph , 30 km/h, Gust: 31 mph , 50 km/h
Temperature: 25°F , -4°C
Wind Chill: 11°F , -12°C
Dew Point: 3°F , -16°C
Humidity: 39%
Barometer: 29.92 inHg , 1013.2 hPa
Clouds: Few Clouds
Visibility: 10 miles , 16 km
Cloud details: Few Clouds 6000 ft
2021/01/23 21:54 KBOS 232154Z 31016G27KT 10SM FEW060 M04/M16 A2992 RMK A02 PK WND 29031/2108 SLP130 T10441161 $
 
KHYA - Hyannis, Massachusetts, USA
Distance from station: ESE 37mi, 59km
Updated: Sat, 23-Jan-2021 4:56pm EST
Clear
Clear
 Wind from NW
Wind: NW 16 mph , 26 km/h, Gust: 26 mph , 43 km/h
Temperature: 28°F , -2°C
Wind Chill: 16°F , -9°C
Dew Point: 7°F , -14°C
Humidity: 40%
Barometer: 29.85 inHg , 1010.8 hPa
Clouds: Clear
Visibility: 10 miles , 16 km
2021/01/23 21:56 KHYA 232156Z 31014G23KT 10SM CLR M02/M14 A2985 RMK AO2 SLP109 T10221144
KMVY - Marthas Vineyard, Massachusetts, USA
Distance from station: SSE 37mi, 60km
Updated: Sat, 23-Jan-2021 4:53pm EST
Clear
Clear
 Wind from NW
Wind: NW 13 mph , 20 km/h, Gust: 23 mph , 37 km/h
Temperature: 28°F , -2°C
Wind Chill: 17°F , -8°C
Dew Point: 9°F , -13°C
Humidity: 43%
Barometer: 29.88 inHg , 1011.9 hPa
Clouds: Clear
Visibility: 10 miles , 16 km
2021/01/23 21:53 KMVY 232153Z 31011G20KT 10SM CLR M02/M13 A2988 RMK AO2 PK WND 30027/2104 SLP120 T10221133
 
KPVC - Provincetown, Massachusetts, USA
Distance from station: ENE 38mi, 61km
Updated: Sat, 23-Jan-2021 4:56pm EST
Overcast
Overcast
 Wind from NW
Wind: NW 25 mph , 41 km/h, Gust: 37 mph , 59 km/h
Temperature: 27°F , -3°C
Wind Chill: 12°F , -11°C
Dew Point: 12°F , -11°C
Humidity: 54%
Barometer: 29.87 inHg , 1011.5 hPa
Clouds: Overcast
Visibility: 10 miles , 16 km
Cloud details: Overcast 4400 ft
2021/01/23 21:56 KPVC 232156Z AUTO 32022G32KT 10SM OVC044 M03/M11 A2987 RMK AO2 PK WND 31035/2120 SLP115 T10281106 FZRANO $
KBED - Bedford, Massachusetts, USA
Distance from station: NNW 44mi, 72km
Updated: Sat, 23-Jan-2021 4:51pm EST
Clear
Clear
 Wind from NW
Wind: NW 12 mph , 19 km/h, Gust: 23 mph , 37 km/h
Temperature: 23°F , -5°C
Wind Chill: 11°F , -12°C
Dew Point: 3°F , -16°C
Humidity: 42%
Barometer: 29.92 inHg , 1013.2 hPa
Clouds: Clear
Visibility: 10 miles , 16 km
2021/01/23 21:51 KBED 232151Z 32010G20KT 10SM CLR M05/M16 A2992 RMK AO2 PK WND 33028/2059 SLP147 T10501156
 
KBVY - Beverly, Massachusetts, USA
Distance from station: 0 48mi, 77km
Updated: Sat, 23-Jan-2021 4:53pm EST
Clear
Clear
 Wind from NW
Wind: NW 16 mph , 26 km/h, Gust: 30 mph , 48 km/h
Temperature: 23°F , -5°C
Wind Chill: 10°F , -12°C
Dew Point: 3°F , -16°C
Humidity: 42%
Barometer: 29.89 inHg , 1012.2 hPa
Clouds: Clear
Visibility: 10 miles , 16 km
2021/01/23 21:53 KBVY 232153Z 31014G26KT 10SM CLR M05/M16 A2989 RMK AO2 PK WND 32027/2055 SLP118 T10501156
KCQX - Chatham, Massachusetts, USA
Distance from station: ESE 49mi, 80km
Updated: Sat, 23-Jan-2021 4:52pm EST
Mostly cloudy
Mostly cloudy
 Wind from NW
Wind: NW 10 mph , 17 km/h, Gust: 23 mph , 37 km/h
Temperature: 28°F , -2°C
Wind Chill: 19°F , -7°C
Dew Point: 9°F , -13°C
Humidity: 43%
Barometer: 29.86 inHg , 1011.2 hPa
Clouds: Mostly cloudy
Visibility: 10 miles , 16 km
Cloud details: Mostly cloudy 5000 ft
2021/01/23 21:52 KCQX 232152Z AUTO 32009G20KT 290V020 10SM BKN050 M02/M13 A2986 RMK AO2 SLP113 T10221128 $